Time;durP1;ratioP1;P1;durP2;ratioP2;P2;SDS_P1;SDS_P2;PMS_P1;PMS_P2;Temp;Humidity;BMP_temperature;BMP_pressure;BME280_temperature;BME280_humidity;BME280_pressure;Samples;Min_cycle;Max_cycle;Signal;HPM_P1;HPM_P2
2023/08/25 00:01:29;;;;;;;1.83;1.73;;;;;;;26.05;63.37;97279.06;5044637;28;20217;-29
2023/08/25 00:03:55;;;;;;;2.00;1.90;;;;;;;26.06;63.73;97279.94;5049812;28;20201;-27
2023/08/25 00:06:23;;;;;;;2.38;2.00;;;;;;;26.04;63.43;97264.47;5035778;28;20221;-29
2023/08/25 00:08:49;;;;;;;2.17;1.98;;;;;;;25.98;63.41;97235.19;5047512;28;20605;-28
2023/08/25 00:11:16;;;;;;;3.00;1.88;;;;;;;26.05;63.63;97257.63;5051386;28;20686;-28
2023/08/25 00:13:43;;;;;;;2.03;1.90;;;;;;;26.04;63.60;97246.44;5042419;28;20713;-29
2023/08/25 00:16:09;;;;;;;2.00;1.80;;;;;;;26.04;63.50;97267.03;5050448;28;20579;-28
2023/08/25 00:18:36;;;;;;;2.22;2.03;;;;;;;26.04;63.30;97258.44;5038323;28;20198;-28
2023/08/25 00:21:04;;;;;;;2.00;1.80;;;;;;;26.05;63.48;97266.19;5039592;28;20197;-28
2023/08/25 00:23:30;;;;;;;2.00;1.90;;;;;;;26.04;63.37;97255.88;5038056;28;20430;-27
2023/08/25 00:25:57;;;;;;;1.92;1.80;;;;;;;26.05;63.58;97273.06;5041436;28;20217;-28
2023/08/25 00:28:24;;;;;;;1.88;1.77;;;;;;;26.04;63.57;97261.91;5034817;28;20232;-28
2023/08/25 00:30:50;;;;;;;2.22;2.05;;;;;;;26.05;63.82;97257.63;5034676;28;20742;-28
2023/08/25 00:33:17;;;;;;;1.90;1.80;;;;;;;26.03;63.73;97243.84;5036578;28;20232;-27
2023/08/25 00:35:44;;;;;;;1.80;1.70;;;;;;;26.05;63.67;97242.16;5044165;28;20194;-28
2023/08/25 00:38:11;;;;;;;1.98;1.80;;;;;;;26.05;63.53;97231.88;5045586;28;20225;-28
2023/08/25 00:40:38;;;;;;;2.05;1.95;;;;;;;26.05;63.76;97235.28;5040837;28;20244;-29
2023/08/25 00:43:04;;;;;;;1.80;1.65;;;;;;;26.05;63.54;97239.59;5043394;28;20197;-28
2023/08/25 00:45:33;;;;;;;2.00;1.80;;;;;;;26.04;63.58;97246.44;5048827;28;20598;-28
2023/08/25 00:48:00;;;;;;;2.17;1.98;;;;;;;26.05;63.61;97239.59;5044382;28;20205;-28
2023/08/25 00:50:28;;;;;;;2.03;1.83;;;;;;;26.04;63.71;97236.13;5035668;28;20228;-28
2023/08/25 00:52:55;;;;;;;2.00;1.70;;;;;;;26.05;63.38;97230.13;5050374;28;20729;-28
2023/08/25 00:55:21;;;;;;;1.98;1.80;;;;;;;26.04;63.41;97217.22;5045719;28;20197;-28
2023/08/25 00:57:48;;;;;;;2.00;1.90;;;;;;;26.05;63.68;97213.84;5045766;28;20255;-27
2023/08/25 01:00:15;;;;;;;1.90;1.80;;;;;;;26.01;63.57;97209.50;5041674;28;20283;-29
2023/08/25 01:02:41;;;;;;;2.05;1.95;;;;;;;26.05;63.68;97203.53;5046958;28;20201;-28
2023/08/25 01:05:08;;;;;;;1.83;1.73;;;;;;;26.04;63.87;97220.69;5039971;28;20642;-27
2023/08/25 01:07:35;;;;;;;1.80;1.70;;;;;;;26.04;63.85;97215.53;5045253;28;20229;-30
2023/08/25 01:10:03;;;;;;;2.03;1.92;;;;;;;26.04;63.54;97212.09;5034045;28;20304;-28
2023/08/25 01:12:35;;;;;;;2.20;2.00;;;;;;;26.04;63.88;97209.50;5045630;28;20196;-28
2023/08/25 01:15:05;;;;;;;1.90;1.80;;;;;;;26.04;63.74;97206.94;5030532;28;20740;-28
2023/08/25 01:17:47;;;;;;;1.98;1.85;;;;;;;26.04;63.79;97210.38;5037208;28;20344;-28
2023/08/25 01:20:14;;;;;;;2.03;1.83;;;;;;;26.04;63.92;97204.34;5040991;28;20217;-28
2023/08/25 01:22:40;;;;;;;1.80;1.70;;;;;;;26.04;63.58;97204.34;5042441;28;20263;-28
2023/08/25 01:25:27;;;;;;;1.63;1.52;;;;;;;26.04;63.63;97202.66;5043286;28;20253;-28
2023/08/25 01:27:58;;;;;;;1.77;1.67;;;;;;;26.03;63.54;97205.22;5039002;28;20193;-28
2023/08/25 01:30:30;;;;;;;1.83;1.73;;;;;;;26.04;63.77;97210.38;5039472;28;20233;-28
2023/08/25 01:33:00;;;;;;;1.75;1.65;;;;;;;26.04;63.65;97212.97;5050856;28;20570;-28
2023/08/25 01:35:57;;;;;;;1.90;1.80;;;;;;;26.04;63.95;97202.66;5043830;28;20233;-28
2023/08/25 01:38:49;;;;;;;1.92;1.73;;;;;;;26.03;63.90;97188.06;5036930;28;20197;-28
2023/08/25 01:41:26;;;;;;;1.95;1.85;;;;;;;26.01;63.86;97194.91;5048170;28;20260;-27
2023/08/25 01:43:52;;;;;;;2.25;1.90;;;;;;;26.03;63.67;97193.22;5031458;28;20627;-27
2023/08/25 01:46:19;;;;;;;1.90;1.77;;;;;;;26.04;63.47;97194.06;5042486;28;20704;-28
2023/08/25 01:48:47;;;;;;;1.75;1.65;;;;;;;26.03;63.79;97200.06;5023227;28;20213;-28
2023/08/25 01:51:14;;;;;;;2.28;2.08;;;;;;;26.03;63.54;97197.50;5035040;28;20208;-30
2023/08/25 01:53:44;;;;;;;1.67;1.58;;;;;;;26.02;63.95;97190.63;5034196;28;20656;-27
2023/08/25 01:56:10;;;;;;;1.80;1.70;;;;;;;26.01;63.75;97189.75;5037138;28;20248;-28
2023/08/25 01:58:37;;;;;;;1.88;1.77;;;;;;;26.02;63.89;97191.47;5045181;28;20292;-27
2023/08/25 02:01:03;;;;;;;1.90;1.80;;;;;;;26.01;63.80;97187.19;5047675;28;20710;-29
2023/08/25 02:03:30;;;;;;;2.00;1.80;;;;;;;26.02;63.71;97188.91;5049203;28;20259;-30
2023/08/25 02:05:57;;;;;;;1.80;1.70;;;;;;;26.00;63.93;97182.91;5039101;28;20229;-28
2023/08/25 02:08:23;;;;;;;2.22;1.98;;;;;;;26.01;63.63;97176.88;5046309;28;20660;-31
2023/08/25 02:10:50;;;;;;;1.85;1.70;;;;;;;26.01;63.95;97166.59;5044424;28;20244;-29
2023/08/25 02:13:16;;;;;;;1.73;1.63;;;;;;;26.01;63.75;97161.44;5038499;28;20256;-28
2023/08/25 02:15:47;;;;;;;1.80;1.52;;;;;;;26.01;63.89;97163.13;5040543;28;20205;-28
2023/08/25 02:18:13;;;;;;;1.60;1.50;;;;;;;26.01;63.79;97152.84;5051723;28;20197;-28
2023/08/25 02:20:40;;;;;;;1.85;1.75;;;;;;;25.99;63.95;97146.84;5041733;28;20643;-31
2023/08/25 02:23:07;;;;;;;1.80;1.70;;;;;;;26.00;63.74;97156.28;5045270;28;20201;-28
2023/08/25 02:25:33;;;;;;;1.70;1.60;;;;;;;25.99;63.74;97164.88;5037671;28;20210;-28
2023/08/25 02:28:00;;;;;;;1.67;1.55;;;;;;;25.98;63.87;97169.13;5039241;28;20200;-28
2023/08/25 02:30:27;;;;;;;1.70;1.60;;;;;;;25.99;63.81;97170.00;5031616;28;20221;-29
2023/08/25 02:32:54;;;;;;;1.83;1.60;;;;;;;25.98;63.90;97164.00;5035827;28;20243;-28
2023/08/25 02:35:21;;;;;;;1.70;1.60;;;;;;;25.98;63.78;97163.09;5046271;28;20201;-28
2023/08/25 02:38:01;;;;;;;2.08;1.88;;;;;;;25.97;63.73;97171.66;5040645;28;20205;-29
2023/08/25 02:40:27;;;;;;;1.85;1.75;;;;;;;25.97;63.96;97169.97;5036493;28;20703;-28
2023/08/25 02:42:54;;;;;;;1.73;1.60;;;;;;;25.96;63.79;97170.81;5047406;28;20294;-28
2023/08/25 02:45:25;;;;;;;1.60;1.50;;;;;;;25.96;63.75;97159.66;5041779;28;20255;-30
2023/08/25 02:47:52;;;;;;;1.70;1.60;;;;;;;25.95;63.98;97158.78;5040929;28;20304;-31
2023/08/25 02:50:19;;;;;;;1.60;1.50;;;;;;;25.94;63.87;97159.66;5042834;28;20308;-28
2023/08/25 02:52:46;;;;;;;1.77;1.67;;;;;;;25.95;64.10;97156.22;5039534;28;20717;-28
2023/08/25 02:55:16;;;;;;;1.50;1.40;;;;;;;25.93;64.21;97149.34;5043176;28;20246;-28
2023/08/25 02:57:42;;;;;;;1.95;1.60;;;;;;;25.94;64.09;97158.78;5034356;28;20255;-28
2023/08/25 03:00:11;;;;;;;2.10;1.80;;;;;;;25.93;64.04;97159.63;5035178;28;20217;-29
2023/08/25 03:02:38;;;;;;;2.05;1.80;;;;;;;25.93;64.27;97149.34;5035175;28;20204;-28
2023/08/25 03:05:05;;;;;;;1.80;1.70;;;;;;;25.92;64.25;97148.47;5047318;28;20620;-28
2023/08/25 03:07:33;;;;;;;2.13;1.93;;;;;;;25.94;63.95;97146.78;5044819;28;20221;-27
2023/08/25 03:09:59;;;;;;;1.70;1.60;;;;;;;25.93;64.09;97150.19;5036714;28;20216;-28
2023/08/25 03:12:29;;;;;;;1.83;1.70;;;;;;;25.93;64.13;97155.34;5042342;28;20228;-28
2023/08/25 03:14:56;;;;;;;1.57;1.47;;;;;;;25.94;64.32;97171.66;5048434;28;20205;-28
2023/08/25 03:17:22;;;;;;;1.90;1.70;;;;;;;25.93;63.96;97178.50;5039987;28;20640;-31
2023/08/25 03:19:49;;;;;;;1.77;1.60;;;;;;;25.93;64.15;97165.63;5039672;28;20221;-29
2023/08/25 03:22:16;;;;;;;1.50;1.40;;;;;;;25.94;64.35;97167.38;5045152;28;20202;-28
2023/08/25 03:24:42;;;;;;;1.57;1.47;;;;;;;25.93;64.16;97157.91;5040368;28;20224;-27
2023/08/25 03:27:09;;;;;;;1.80;1.70;;;;;;;25.95;64.23;97165.63;5036733;28;20282;-27
2023/08/25 03:29:36;;;;;;;1.60;1.50;;;;;;;25.86;64.25;97145.84;5042038;28;20659;-28
2023/08/25 03:32:03;;;;;;;1.37;1.27;;;;;;;25.94;64.18;97162.22;5044852;28;20263;-28
2023/08/25 03:34:30;;;;;;;1.70;1.60;;;;;;;25.94;63.98;97156.19;5044096;28;20240;-28
2023/08/25 03:36:56;;;;;;;1.83;1.73;;;;;;;25.95;63.90;97147.63;5038009;28;20202;-28
2023/08/25 03:39:24;;;;;;;1.50;1.40;;;;;;;25.95;64.25;97155.34;5038058;28;20237;-28
2023/08/25 03:41:50;;;;;;;1.63;1.53;;;;;;;25.95;64.24;97157.91;5036058;28;20205;-28
2023/08/25 03:44:17;;;;;;;1.80;1.70;;;;;;;25.96;64.05;97154.50;5036769;28;20233;-29
2023/08/25 03:46:45;;;;;;;2.95;1.42;;;;;;;25.94;64.38;97144.19;5042765;28;20225;-28
2023/08/25 03:49:11;;;;;;;1.70;1.60;;;;;;;25.95;64.34;97147.63;5040588;28;20272;-28
2023/08/25 03:51:38;;;;;;;2.40;1.77;;;;;;;25.95;64.08;97147.63;5043835;28;20426;-27
2023/08/25 03:54:06;;;;;;;1.90;1.70;;;;;;;25.94;64.13;97153.63;5038411;28;20722;-29
2023/08/25 03:56:32;;;;;;;1.60;1.50;;;;;;;25.95;63.94;97160.50;5036000;28;20204;-30
2023/08/25 03:58:59;;;;;;;1.73;1.53;;;;;;;25.94;64.06;97164.81;5034243;28;20587;-28
2023/08/25 04:01:25;;;;;;;1.80;1.70;;;;;;;25.94;64.19;97162.22;5032442;28;20294;-28
2023/08/25 04:03:52;;;;;;;2.35;2.00;;;;;;;25.96;66.69;97169.97;5048136;28;20733;-28
2023/08/25 04:06:19;;;;;;;3.83;2.73;;;;;;;25.96;69.09;97170.81;5043196;28;20197;-30
2023/08/25 04:08:45;;;;;;;8.73;3.17;;;;;;;25.95;70.80;97169.09;5038886;28;20202;-29
2023/08/25 04:11:12;;;;;;;4.07;3.08;;;;;;;25.97;71.80;97158.78;5035726;28;20205;-28
2023/08/25 04:13:39;;;;;;;3.03;2.75;;;;;;;25.96;72.74;97154.50;5047012;28;20271;-28
2023/08/25 04:16:05;;;;;;;5.00;2.80;;;;;;;25.96;73.04;97154.50;5042056;28;20270;-31
2023/08/25 04:18:32;;;;;;;4.15;2.88;;;;;;;25.94;72.07;97157.06;5040314;28;20366;-29
2023/08/25 04:20:58;;;;;;;6.50;3.40;;;;;;;25.95;72.38;97157.91;5045573;28;20236;-28
2023/08/25 04:23:26;;;;;;;6.95;3.55;;;;;;;25.95;72.86;97155.34;5038251;28;20248;-30
2023/08/25 04:25:52;;;;;;;5.75;3.17;;;;;;;25.87;72.98;97133.84;5043824;28;20581;-28
2023/08/25 04:28:19;;;;;;;8.70;3.40;;;;;;;25.94;71.79;97149.34;5045080;28;20659;-29
2023/08/25 04:30:46;;;;;;;5.13;3.00;;;;;;;25.93;70.58;97139.88;5047889;28;20225;-29
2023/08/25 04:33:12;;;;;;;5.05;3.28;;;;;;;25.94;72.55;97149.34;5050475;28;20243;-29
2023/08/25 04:35:39;;;;;;;4.53;3.30;;;;;;;25.93;73.79;97136.47;5051396;28;20551;-30
2023/08/25 04:38:05;;;;;;;4.73;3.20;;;;;;;25.94;74.17;97133.03;5033618;28;20279;-28
2023/08/25 04:40:32;;;;;;;4.13;3.17;;;;;;;25.94;74.43;97128.75;5040511;28;20217;-29
2023/08/25 04:42:59;;;;;;;8.57;3.28;;;;;;;25.94;74.75;97123.59;5036415;28;20233;-29
2023/08/25 04:45:26;;;;;;;8.33;3.97;;;;;;;25.95;75.44;97133.03;5036040;28;20260;-28
2023/08/25 04:47:53;;;;;;;4.87;3.40;;;;;;;25.95;75.28;97132.16;5040038;28;20217;-28
2023/08/25 04:50:20;;;;;;;12.47;4.00;;;;;;;25.95;75.39;97121.88;5034124;28;20213;-29
2023/08/25 04:52:46;;;;;;;5.53;3.50;;;;;;;25.94;75.50;97117.56;5032714;28;20252;-28
2023/08/25 04:55:13;;;;;;;8.10;4.27;;;;;;;25.94;75.22;97112.44;5038381;28;20671;-31
2023/08/25 04:57:41;;;;;;;7.53;3.63;;;;;;;25.93;74.93;97101.25;5041855;28;20202;-28
2023/08/25 05:00:08;;;;;;;10.33;3.97;;;;;;;25.93;75.44;97095.28;5035248;28;20218;-28
2023/08/25 05:02:35;;;;;;;9.67;4.07;;;;;;;25.93;75.91;97090.97;5039009;28;20284;-28
2023/08/25 05:05:04;;;;;;;5.00;3.65;;;;;;;25.91;76.53;97086.66;5038780;28;20611;-28
2023/08/25 05:07:31;;;;;;;7.33;3.83;;;;;;;25.92;76.38;97102.13;5043075;28;20221;-28
2023/08/25 05:09:58;;;;;;;7.10;3.90;;;;;;;25.92;76.33;97094.41;5036803;28;20216;-32
2023/08/25 05:12:24;;;;;;;6.38;3.45;;;;;;;25.92;76.52;97085.81;5039626;28;20205;-28
2023/08/25 05:14:51;;;;;;;6.10;3.57;;;;;;;25.92;75.98;97078.94;5037007;28;20209;-29
2023/08/25 05:17:18;;;;;;;6.88;3.58;;;;;;;25.90;76.38;97072.06;5048709;28;20216;-28
2023/08/25 05:19:44;;;;;;;7.03;3.60;;;;;;;25.90;75.89;97075.50;5048437;28;20220;-31
2023/08/25 05:22:11;;;;;;;4.60;3.67;;;;;;;25.90;75.35;97059.22;5052041;28;20202;-31
2023/08/25 05:24:38;;;;;;;9.43;3.72;;;;;;;25.90;74.55;97072.91;5042717;28;20266;-28
2023/08/25 05:27:04;;;;;;;7.35;3.10;;;;;;;25.91;74.70;97074.66;5041296;28;20308;-29
2023/08/25 05:29:31;;;;;;;5.17;3.13;;;;;;;25.89;74.31;97073.78;5032794;28;20252;-28
2023/08/25 05:31:58;;;;;;;4.13;3.22;;;;;;;25.89;73.83;97093.50;5044180;28;20239;-28
2023/08/25 05:34:25;;;;;;;5.37;3.40;;;;;;;25.89;73.45;97080.63;5044330;28;20205;-28
2023/08/25 05:36:52;;;;;;;5.93;3.58;;;;;;;25.88;73.75;97081.50;5043244;28;20197;-28
2023/08/25 05:39:20;;;;;;;9.37;3.27;;;;;;;25.89;73.10;97071.22;5038781;28;20245;-30
2023/08/25 05:41:47;;;;;;;4.95;3.65;;;;;;;25.89;72.84;97075.47;5044787;28;20287;-28
2023/08/25 05:44:13;;;;;;;7.28;3.47;;;;;;;25.89;72.77;97093.50;5034125;28;20228;-33
2023/08/25 05:46:40;;;;;;;9.50;3.63;;;;;;;25.88;72.64;97089.22;5041990;28;20202;-28
2023/08/25 05:49:07;;;;;;;9.00;3.70;;;;;;;25.86;72.64;97071.19;5032702;28;20576;-28
2023/08/25 05:51:33;;;;;;;7.20;3.10;;;;;;;25.88;72.30;97074.66;5045637;28;20620;-28
2023/08/25 05:54:00;;;;;;;4.25;3.00;;;;;;;25.89;71.58;97078.94;5047036;28;20197;-28
2023/08/25 05:56:27;;;;;;;5.80;3.40;;;;;;;25.90;71.31;97072.06;5039921;28;20201;-30
2023/08/25 05:58:54;;;;;;;5.77;2.90;;;;;;;25.90;71.50;97077.22;5047180;28;20200;-29
2023/08/25 06:01:21;;;;;;;3.40;3.00;;;;;;;25.92;71.64;97073.78;5049096;28;20207;-31
2023/08/25 06:03:47;;;;;;;5.60;3.13;;;;;;;25.93;71.65;97064.38;5043798;28;20292;-28
2023/08/25 06:06:14;;;;;;;5.03;2.95;;;;;;;25.92;71.41;97057.47;5043286;28;20668;-28
2023/08/25 06:08:41;;;;;;;4.18;3.05;;;;;;;25.94;70.94;97059.22;5031900;28;20233;-28
2023/08/25 06:11:07;;;;;;;6.68;3.25;;;;;;;25.96;70.87;97059.22;5043457;28;20205;-28
2023/08/25 06:13:34;;;;;;;3.13;2.80;;;;;;;25.96;71.24;97061.81;5039980;28;20262;-28
2023/08/25 06:16:01;;;;;;;7.88;3.40;;;;;;;25.96;72.54;97057.50;5047366;28;20292;-29
2023/08/25 06:18:28;;;;;;;6.72;3.30;;;;;;;25.97;72.81;97053.22;5042143;28;20201;-28
2023/08/25 06:20:54;;;;;;;3.63;2.80;;;;;;;25.98;72.28;97047.19;5035701;28;20221;-28
2023/08/25 06:23:21;;;;;;;4.93;3.17;;;;;;;25.96;72.21;97038.63;5039192;28;20284;-33
2023/08/25 06:25:48;;;;;;;3.67;2.70;;;;;;;25.96;72.03;97030.91;5040691;28;20213;-28
2023/08/25 06:28:15;;;;;;;4.53;3.03;;;;;;;25.97;71.58;97032.63;5038295;28;20221;-32
2023/08/25 06:30:42;;;;;;;7.57;2.80;;;;;;;25.97;71.39;97032.63;5037230;28;20217;-28
2023/08/25 06:33:09;;;;;;;4.82;2.80;;;;;;;25.97;71.38;97040.34;5035864;28;20636;-28
2023/08/25 06:35:39;;;;;;;4.83;2.50;;;;;;;25.96;71.36;97025.75;5035897;28;20194;-28
2023/08/25 06:38:06;;;;;;;5.65;2.75;;;;;;;25.96;71.19;97010.31;5034826;28;20650;-28
2023/08/25 06:40:36;;;;;;;4.28;2.42;;;;;;;25.96;71.10;97008.56;5036929;28;20879;-28
2023/08/25 06:43:03;;;;;;;6.97;2.87;;;;;;;25.96;70.85;97008.56;5040425;28;20582;-28
2023/08/25 06:45:30;;;;;;;4.00;2.72;;;;;;;25.96;70.65;97007.72;5034196;28;20205;-32
2023/08/25 06:47:57;;;;;;;3.15;2.30;;;;;;;25.95;70.85;97003.41;5044313;28;20320;-28
2023/08/25 06:50:24;;;;;;;3.28;2.47;;;;;;;25.95;70.72;97006.00;5036590;28;20217;-28
2023/08/25 06:52:51;;;;;;;4.15;2.80;;;;;;;25.96;70.42;97015.47;5029834;28;20194;-31
2023/08/25 06:55:18;;;;;;;4.27;2.83;;;;;;;25.95;70.30;97012.00;5036786;28;20263;-31
2023/08/25 06:57:46;;;;;;;4.68;2.50;;;;;;;25.96;70.08;97021.44;5041151;28;20705;-31
2023/08/25 07:00:14;;;;;;;3.53;2.63;;;;;;;25.96;70.03;97021.44;5028338;28;20237;-29
2023/08/25 07:02:43;;;;;;;3.90;2.28;;;;;;;25.96;70.15;97013.72;5028898;28;20225;-30
2023/08/25 07:05:10;;;;;;;3.83;2.65;;;;;;;25.96;70.19;97011.16;5034670;28;20239;-28
2023/08/25 07:07:37;;;;;;;3.23;2.50;;;;;;;25.96;69.97;97006.00;5034993;28;20224;-28
2023/08/25 07:10:04;;;;;;;3.97;2.55;;;;;;;25.96;69.60;97002.59;5038459;28;20213;-28
2023/08/25 07:12:31;;;;;;;3.17;2.40;;;;;;;25.96;69.53;97008.56;5034810;28;20211;-31
2023/08/25 07:14:58;;;;;;;3.00;2.42;;;;;;;25.96;69.72;97013.72;5031488;28;20288;-34
2023/08/25 07:17:25;;;;;;;3.25;2.35;;;;;;;25.96;69.33;97010.31;5033977;28;20213;-28
2023/08/25 07:19:51;;;;;;;2.63;2.30;;;;;;;25.97;69.53;97014.59;5031420;28;20717;-34
2023/08/25 07:22:18;;;;;;;3.90;2.28;;;;;;;25.96;69.53;97016.31;5032261;28;20676;-29
2023/08/25 07:24:46;;;;;;;2.97;2.30;;;;;;;25.97;69.45;97017.16;5037646;28;20284;-31
2023/08/25 07:27:16;;;;;;;2.40;2.20;;;;;;;25.96;69.43;97024.03;5039826;28;20692;-28
2023/08/25 07:29:43;;;;;;;2.73;2.40;;;;;;;25.95;69.37;97024.88;5032461;28;20308;-29
2023/08/25 07:32:09;;;;;;;3.33;2.30;;;;;;;25.95;69.12;97030.03;5031553;28;20204;-28
2023/08/25 07:34:36;;;;;;;3.88;2.50;;;;;;;25.95;68.91;97034.31;5033303;28;20219;-33
2023/08/25 07:37:03;;;;;;;2.60;2.40;;;;;;;25.95;68.70;97031.75;5030356;28;20208;-30
2023/08/25 07:39:30;;;;;;;2.22;1.83;;;;;;;25.96;68.70;97033.47;5035539;28;20584;-28
2023/08/25 07:41:56;;;;;;;3.28;2.15;;;;;;;25.96;68.40;97028.34;5030718;28;20208;-31
2023/08/25 07:44:23;;;;;;;5.65;2.30;;;;;;;25.95;68.50;97042.91;5041387;28;20201;-31
2023/08/25 07:46:50;;;;;;;3.83;2.20;;;;;;;25.96;68.33;97054.09;5037284;28;20205;-28
2023/08/25 07:49:17;;;;;;;2.95;2.50;;;;;;;25.95;68.31;97050.63;5041320;28;20221;-31
2023/08/25 07:51:43;;;;;;;4.68;2.50;;;;;;;25.94;68.28;97046.34;5037772;28;20624;-31
2023/08/25 07:54:10;;;;;;;2.47;2.28;;;;;;;25.94;68.29;97046.34;5034540;28;20668;-28
2023/08/25 07:56:36;;;;;;;3.50;2.20;;;;;;;25.95;68.28;97060.94;5036324;28;20205;-29
2023/08/25 07:59:03;;;;;;;3.50;2.50;;;;;;;25.94;68.43;97063.50;5045534;28;20224;-29
2023/08/25 08:01:30;;;;;;;2.15;2.05;;;;;;;25.95;68.39;97067.78;5030799;28;20214;-30
2023/08/25 08:03:57;;;;;;;1.90;1.80;;;;;;;25.95;67.99;97072.94;5032071;28;20205;-28
2023/08/25 08:06:24;;;;;;;2.35;2.03;;;;;;;25.96;68.26;97096.13;5037415;28;20205;-30
2023/08/25 08:08:50;;;;;;;2.13;1.90;;;;;;;25.97;67.90;97177.69;5038681;28;20575;-30
2023/08/25 08:11:18;;;;;;;2.50;2.30;;;;;;;25.96;67.75;97163.06;5042205;28;20208;-29
2023/08/25 08:13:44;;;;;;;2.80;2.05;;;;;;;25.98;67.53;97194.91;5039821;28;20197;-28
2023/08/25 08:16:11;;;;;;;2.05;1.92;;;;;;;25.99;67.49;97173.44;5037613;28;20204;-28
2023/08/25 08:18:38;;;;;;;6.53;2.20;;;;;;;25.92;67.67;97176.78;5042509;28;20642;-28
2023/08/25 08:21:05;;;;;;;2.53;2.17;;;;;;;26.01;67.38;97194.03;5044551;28;20412;-28
2023/08/25 08:23:31;;;;;;;4.70;1.98;;;;;;;26.01;67.46;97205.22;5045422;28;20306;-28
2023/08/25 08:25:58;;;;;;;2.10;1.90;;;;;;;26.03;67.29;97205.22;5032569;28;20205;-33
2023/08/25 08:28:25;;;;;;;2.35;2.10;;;;;;;26.03;67.24;97208.66;5035341;28;20231;-29
2023/08/25 08:30:51;;;;;;;1.95;1.85;;;;;;;26.04;67.18;97220.69;5038673;28;20308;-28
2023/08/25 08:33:18;;;;;;;2.50;2.08;;;;;;;26.06;67.06;97220.69;5037211;28;20204;-30
2023/08/25 08:35:44;;;;;;;2.83;2.10;;;;;;;26.07;66.81;97196.66;5036874;28;20513;-28
2023/08/25 08:38:11;;;;;;;1.98;1.73;;;;;;;26.06;66.89;97211.25;5040672;28;20447;-28
2023/08/25 08:40:38;;;;;;;2.30;2.10;;;;;;;26.07;66.85;97233.59;5039132;28;20355;-28
2023/08/25 08:43:07;;;;;;;2.30;1.80;;;;;;;26.07;67.17;97243.00;5034118;28;20259;-29
2023/08/25 08:45:34;;;;;;;2.85;1.95;;;;;;;26.07;66.71;97236.16;5026420;28;20282;-34
2023/08/25 08:48:04;;;;;;;2.05;1.90;;;;;;;26.09;66.82;97243.91;5035227;28;20686;-29
2023/08/25 08:50:31;;;;;;;2.38;2.08;;;;;;;26.09;66.51;97261.94;5045005;28;20229;-28
2023/08/25 08:52:58;;;;;;;2.15;1.95;;;;;;;26.07;66.69;97268.75;5033024;28;20202;-30
2023/08/25 08:55:26;;;;;;;2.40;2.20;;;;;;;26.09;66.45;97273.09;5018532;28;20198;-32
2023/08/25 08:57:53;;;;;;;1.90;1.80;;;;;;;26.09;66.46;97285.97;5038320;28;20638;-30
2023/08/25 09:00:20;;;;;;;2.22;2.05;;;;;;;26.09;66.25;97291.13;5034856;28;20691;-30
2023/08/25 09:02:50;;;;;;;2.07;1.87;;;;;;;26.10;66.42;97297.13;5037677;28;20676;-30
2023/08/25 09:05:21;;;;;;;2.95;1.88;;;;;;;26.10;66.30;97299.69;5035495;28;20289;-31
2023/08/25 09:07:52;;;;;;;2.17;1.98;;;;;;;26.08;66.34;97310.00;5034108;28;20278;-30
2023/08/25 09:10:19;;;;;;;2.17;1.97;;;;;;;26.10;66.29;97307.44;5053607;28;20275;-31
2023/08/25 09:12:46;;;;;;;2.63;2.13;;;;;;;26.11;66.30;97327.19;5011893;28;20200;-29
2023/08/25 09:15:23;;;;;;;1.90;1.80;;;;;;;26.10;66.28;97323.75;5040053;28;20201;-29
2023/08/25 09:17:58;;;;;;;3.15;2.17;;;;;;;26.11;66.19;97317.75;5038526;28;20501;-32
2023/08/25 09:20:25;;;;;;;3.63;2.00;;;;;;;26.12;66.11;97313.47;5030685;28;20333;-32
2023/08/25 09:22:56;;;;;;;3.23;2.20;;;;;;;26.12;66.17;97318.63;5035410;28;20199;-29
2023/08/25 09:25:25;;;;;;;2.00;1.80;;;;;;;26.12;65.96;97303.16;5032102;28;20201;-29
2023/08/25 09:28:00;;;;;;;1.80;1.70;;;;;;;26.11;65.99;97281.69;5038354;28;20220;-30
2023/08/25 09:30:34;;;;;;;2.00;1.80;;;;;;;26.12;65.98;97272.25;5040364;28;20627;-29
2023/08/25 09:33:03;;;;;;;3.15;1.90;;;;;;;26.11;65.87;97266.22;5035821;28;20209;-29
2023/08/25 09:35:31;;;;;;;1.90;1.80;;;;;;;26.12;66.02;97260.25;5045581;28;20212;-29
2023/08/25 09:37:57;;;;;;;1.80;1.70;;;;;;;26.12;65.98;97236.19;5031311;28;20208;-29
2023/08/25 09:40:25;;;;;;;2.20;1.65;;;;;;;26.11;65.82;97217.28;5037938;28;20228;-28
2023/08/25 09:43:01;;;;;;;2.88;1.90;;;;;;;26.12;65.88;97203.56;5032448;28;20217;-30
2023/08/25 09:45:28;;;;;;;2.10;1.90;;;;;;;26.11;65.91;97201.00;5039200;28;20209;-28
2023/08/25 09:48:14;;;;;;;2.58;1.92;;;;;;;26.12;65.87;97188.13;5032479;28;20237;-29
2023/08/25 09:50:42;;;;;;;2.22;2.03;;;;;;;26.12;65.73;97193.28;5029630;28;20229;-28
2023/08/25 09:53:10;;;;;;;2.42;1.98;;;;;;;26.12;65.73;97203.56;5035633;28;20216;-31
2023/08/25 09:55:37;;;;;;;2.30;1.80;;;;;;;26.11;65.63;97201.84;5040948;28;20291;-28
2023/08/25 09:58:08;;;;;;;2.10;1.73;;;;;;;26.14;65.86;97234.50;5050406;28;20567;-28
2023/08/25 10:00:36;;;;;;;1.80;1.70;;;;;;;26.11;65.71;97245.63;5041206;28;20639;-32
2023/08/25 10:03:10;;;;;;;3.20;2.00;;;;;;;26.12;65.71;97247.38;5035775;28;20318;-28
2023/08/25 10:05:38;;;;;;;2.05;1.70;;;;;;;26.11;65.75;97239.63;5029094;28;20203;-33
2023/08/25 10:08:07;;;;;;;1.83;1.73;;;;;;;26.13;65.56;97243.06;5036573;28;20346;-28
2023/08/25 10:10:36;;;;;;;1.92;1.83;;;;;;;26.13;65.65;97243.06;5032291;28;20730;-32
2023/08/25 10:13:06;;;;;;;2.57;1.60;;;;;;;26.10;65.42;97246.47;5035491;28;20193;-28
2023/08/25 10:15:32;;;;;;;1.92;1.70;;;;;;;26.10;65.44;97254.22;5040270;28;20205;-30
2023/08/25 10:18:03;;;;;;;2.25;1.80;;;;;;;26.12;65.45;97261.94;5036049;28;20205;-33
2023/08/25 10:20:30;;;;;;;3.70;1.80;;;;;;;26.12;65.40;97265.41;5042557;28;20221;-30
2023/08/25 10:22:57;;;;;;;2.10;1.90;;;;;;;26.12;65.24;97262.81;5046490;28;20207;-29
2023/08/25 10:25:29;;;;;;;1.80;1.70;;;;;;;26.12;65.30;97256.78;5028677;28;20232;-29
2023/08/25 10:28:00;;;;;;;1.88;1.70;;;;;;;26.12;65.16;97249.06;5039324;28;20696;-32
2023/08/25 10:30:27;;;;;;;1.95;1.75;;;;;;;26.12;65.29;97241.34;5034248;28;20230;-29
2023/08/25 10:32:55;;;;;;;2.08;1.80;;;;;;;26.10;65.20;97246.47;5020350;28;20201;-30
2023/08/25 10:35:47;;;;;;;1.90;1.63;;;;;;;26.12;65.24;97267.09;5029936;28;20244;-30
2023/08/25 10:38:19;;;;;;;3.25;2.00;;;;;;;26.12;65.25;97264.53;5030035;28;20687;-32
2023/08/25 10:40:53;;;;;;;1.90;1.70;;;;;;;26.11;65.07;97265.38;5028963;28;20645;-33
2023/08/25 10:43:27;;;;;;;3.42;1.80;;;;;;;26.12;64.98;97256.78;5030129;28;20209;-29
2023/08/25 10:45:56;;;;;;;1.98;1.77;;;;;;;26.11;65.32;97244.78;5029308;28;20614;-30
2023/08/25 10:48:25;;;;;;;1.80;1.70;;;;;;;26.10;65.12;97232.72;5036918;28;20217;-32
2023/08/25 10:51:10;;;;;;;1.97;1.77;;;;;;;26.05;64.94;97213.84;5035396;28;20212;-28
2023/08/25 10:53:38;;;;;;;2.38;1.50;;;;;;;26.10;65.01;97237.88;5038529;28;20267;-32
2023/08/25 10:56:17;;;;;;;1.80;1.70;;;;;;;26.10;65.15;97240.47;5040659;28;20209;-31
2023/08/25 10:59:06;;;;;;;1.63;1.52;;;;;;;26.09;64.88;97239.63;5033999;28;20201;-34
2023/08/25 11:01:38;;;;;;;1.83;1.73;;;;;;;26.10;65.34;97243.03;5031833;28;20213;-28
2023/08/25 11:04:29;;;;;;;2.03;1.83;;;;;;;26.09;65.17;97244.78;5027877;28;20258;-29
2023/08/25 11:06:57;;;;;;;1.90;1.63;;;;;;;26.09;65.05;97262.81;5038032;28;20202;-28
2023/08/25 11:09:23;;;;;;;1.83;1.63;;;;;;;26.10;65.00;97274.81;5033472;28;20220;-31
2023/08/25 11:11:57;;;;;;;1.67;1.58;;;;;;;26.11;65.21;97273.13;5029638;28;20201;-29
2023/08/25 11:14:28;;;;;;;1.80;1.53;;;;;;;26.10;64.87;97279.97;5030910;28;20300;-31
2023/08/25 11:16:58;;;;;;;1.75;1.65;;;;;;;26.09;64.85;97288.56;5035418;28;20259;-29
2023/08/25 11:19:28;;;;;;;1.60;1.50;;;;;;;26.10;65.26;97302.28;5030646;28;20317;-31
2023/08/25 11:21:58;;;;;;;2.00;1.80;;;;;;;26.11;64.83;97297.13;5032756;28;20883;-29
2023/08/25 11:24:25;;;;;;;1.70;1.60;;;;;;;26.11;65.18;97286.84;5026785;28;20296;-31
2023/08/25 11:26:51;;;;;;;1.77;1.60;;;;;;;26.12;64.80;97270.56;5033493;28;20201;-28
2023/08/25 11:29:18;;;;;;;2.75;1.60;;;;;;;26.12;65.01;97272.25;5027825;28;20229;-28
2023/08/25 11:31:44;;;;;;;1.77;1.60;;;;;;;26.11;65.11;97262.81;5043488;28;20239;-34
2023/08/25 11:34:11;;;;;;;1.80;1.70;;;;;;;26.10;64.79;97261.94;5028705;28;20247;-29
2023/08/25 11:36:41;;;;;;;1.70;1.60;;;;;;;26.11;64.93;97273.94;5026838;28;20679;-32
2023/08/25 11:39:15;;;;;;;1.80;1.70;;;;;;;26.11;64.85;97268.81;5030399;28;20243;-28